Time;durP1;ratioP1;P1;durP2;ratioP2;P2;SDS_P1;SDS_P2;PMS_P1;PMS_P2;Temp;Humidity;BMP_temperature;BMP_pressure;BME280_temperature;BME280_humidity;BME280_pressure;Samples;Min_cycle;Max_cycle;Signal;HPM_P1;HPM_P2
2022/08/12 00:44:45;;;;;;;;;;;24.30;50.00;;;;;;5070060;28;19954;-56
2022/08/12 00:47:12;;;;;;;;;;;24.30;49.50;;;;;;5052711;28;19912;-56
2022/08/12 00:49:38;;;;;;;;;;;24.30;50.00;;;;;;5069125;28;19973;-55
2022/08/12 00:52:10;;;;;;;;;;;24.20;49.10;;;;;;5051360;28;20365;-56
2022/08/12 00:54:42;;;;;;;;;;;24.20;49.40;;;;;;5051078;28;19913;-56
2022/08/12 00:57:09;;;;;;;;;;;24.20;49.50;;;;;;5057372;28;19913;-55
2022/08/12 00:59:35;;;;;;;;;;;24.10;49.20;;;;;;5051642;28;20499;-56
2022/08/12 01:02:02;;;;;;;;;;;24.10;50.20;;;;;;5051027;28;19921;-55
2022/08/12 01:12:42;;;;;;;;;;;23.90;50.00;;;;;;5050922;28;19924;-57
2022/08/12 01:15:10;;;;;;;;;;;23.90;50.40;;;;;;5051064;28;19909;-56
2022/08/12 01:17:37;;;;;;;;;;;23.90;50.10;;;;;;5065476;28;19915;-57
2022/08/12 01:20:04;;;;;;;;;;;23.80;50.10;;;;;;5069952;28;19909;-56
2022/08/12 01:22:36;;;;;;;;;;;23.80;50.60;;;;;;5070072;28;19962;-55
2022/08/12 01:25:06;;;;;;;;;;;23.80;51.90;;;;;;5055058;28;19909;-56
2022/08/12 01:27:33;;;;;;;;;;;23.80;51.30;;;;;;5053536;28;19909;-56
2022/08/12 01:30:00;;;;;;;;;;;23.70;51.40;;;;;;5054460;28;19909;-55
2022/08/12 01:32:26;;;;;;;;;;;23.70;50.70;;;;;;5056359;28;19923;-56
2022/08/12 01:34:56;;;;;;;;;;;23.60;51.10;;;;;;5073961;28;19908;-56
2022/08/12 01:37:23;;;;;;;;;;;23.60;50.90;;;;;;5073593;28;19915;-56
2022/08/12 01:39:51;;;;;;;;;;;23.60;50.70;;;;;;5073267;28;19908;-57
2022/08/12 01:42:18;;;;;;;;;;;23.60;50.80;;;;;;5071131;28;19918;-56
2022/08/12 01:44:47;;;;;;;;;;;23.60;52.20;;;;;;5039560;28;20307;-56
2022/08/12 01:47:48;;;;;;;;;;;23.60;50.50;;;;;;5069252;28;19970;-55
2022/08/12 01:50:32;;;;;;;;;;;23.60;51.00;;;;;;5067096;28;19920;-57
2022/08/12 01:53:05;;;;;;;;;;;23.60;50.60;;;;;;5054095;28;19917;-58
2022/08/12 01:55:32;;;;;;;;;;;23.60;51.10;;;;;;5054357;28;19975;-57
2022/08/12 01:58:16;;;;;;;;;;;23.50;51.60;;;;;;5060177;28;19982;-56
2022/08/12 02:00:47;;;;;;;;;;;23.50;51.10;;;;;;5053586;28;20712;-56
2022/08/12 02:12:06;;;;;;;;;;;23.40;51.40;;;;;;5072647;28;19934;-57
2022/08/12 02:14:40;;;;;;;;;;;23.40;50.70;;;;;;5072961;28;19924;-58
2022/08/12 02:17:14;;;;;;;;;;;23.40;52.60;;;;;;5072772;28;19908;-57
2022/08/12 02:19:39;;;;;;;;;;;23.30;52.10;;;;;;5072980;28;19963;-57
2022/08/12 02:22:05;;;;;;;;;;;23.30;51.40;;;;;;5060091;28;19956;-57
2022/08/12 02:24:31;;;;;;;;;;;23.20;51.30;;;;;;5057355;28;20268;-58
2022/08/12 02:26:57;;;;;;;;;;;23.30;51.30;;;;;;5072769;28;19913;-58
2022/08/12 02:29:22;;;;;;;;;;;23.20;51.20;;;;;;5072596;28;19909;-57
2022/08/12 02:31:48;;;;;;;;;;;23.20;51.60;;;;;;5037840;28;19915;-57
2022/08/12 02:34:15;;;;;;;;;;;23.20;51.90;;;;;;5063451;28;19917;-57
2022/08/12 02:36:43;;;;;;;;;;;23.10;51.80;;;;;;5072676;28;19908;-57
2022/08/12 02:39:12;;;;;;;;;;;23.10;51.90;;;;;;5071328;28;19913;-57
2022/08/12 02:41:39;;;;;;;;;;;23.10;52.40;;;;;;5068509;28;19948;-57
2022/08/12 02:44:06;;;;;;;;;;;23.10;52.00;;;;;;5053350;28;19912;-57
2022/08/12 02:46:33;;;;;;;;;;;23.10;52.10;;;;;;5069350;28;20392;-57
2022/08/12 02:49:10;;;;;;;;;;;23.00;51.80;;;;;;5047343;28;20327;-56
2022/08/12 02:51:43;;;;;;;;;;;23.00;52.50;;;;;;5054890;28;19913;-57
2022/08/12 02:54:08;;;;;;;;;;;23.00;52.20;;;;;;5052540;28;20384;-57
2022/08/12 02:56:41;;;;;;;;;;;23.00;52.50;;;;;;5053048;28;19916;-57
2022/08/12 02:59:12;;;;;;;;;;;22.90;52.80;;;;;;5053246;28;19915;-57
2022/08/12 03:01:43;;;;;;;;;;;22.90;52.50;;;;;;5052444;28;19917;-58
2022/08/12 03:04:11;;;;;;;;;;;22.90;52.70;;;;;;5063166;28;19972;-57
2022/08/12 03:06:42;;;;;;;;;;;22.90;53.60;;;;;;5071690;28;19923;-53
2022/08/12 03:09:10;;;;;;;;;;;22.80;53.20;;;;;;5064752;28;20360;-56
2022/08/12 03:11:40;;;;;;;;;;;22.80;53.30;;;;;;5072034;28;20284;-57
2022/08/12 03:14:10;;;;;;;;;;;22.80;53.10;;;;;;5071460;28;19917;-55
2022/08/12 03:16:38;;;;;;;;;;;22.70;53.60;;;;;;5052613;28;19932;-57
2022/08/12 03:19:05;;;;;;;;;;;22.70;53.20;;;;;;5052693;28;19916;-57
2022/08/12 03:21:32;;;;;;;;;;;22.70;52.60;;;;;;5057836;28;19909;-56
2022/08/12 03:23:58;;;;;;;;;;;22.70;53.20;;;;;;5058762;28;19912;-57
2022/08/12 03:26:26;;;;;;;;;;;22.60;53.60;;;;;;5071427;28;19963;-57
2022/08/12 03:28:55;;;;;;;;;;;22.60;54.20;;;;;;5071262;28;20433;-54
2022/08/12 03:31:28;;;;;;;;;;;22.50;53.70;;;;;;5071065;28;20380;-57
2022/08/12 03:33:58;;;;;;;;;;;22.50;54.30;;;;;;5057071;28;19917;-58
2022/08/12 03:36:25;;;;;;;;;;;22.50;53.50;;;;;;5052254;28;19917;-56
2022/08/12 03:39:19;;;;;;;;;;;22.50;53.80;;;;;;5033877;28;19928;-56
2022/08/12 03:41:40;;;;;;;;;;;22.50;54.50;;;;;;5055744;28;19925;-57
2022/08/12 04:00:53;;;;;;;;;;;22.40;54.40;;;;;;5060955;28;19942;-57
2022/08/12 04:06:03;;;;;;;;;;;22.30;54.50;;;;;;5066098;28;19915;-56
2022/08/12 04:08:29;;;;;;;;;;;22.30;54.50;;;;;;5070781;28;19908;-56
2022/08/12 04:13:39;;;;;;;;;;;22.30;54.90;;;;;;5061215;28;20304;-56
2022/08/12 04:16:06;;;;;;;;;;;22.30;54.70;;;;;;5051250;28;19909;-57
2022/08/12 04:18:32;;;;;;;;;;;22.20;54.70;;;;;;5054177;28;19915;-56
2022/08/12 04:20:57;;;;;;;;;;;22.20;54.20;;;;;;5070261;28;19916;-57
2022/08/12 04:23:24;;;;;;;;;;;22.20;55.20;;;;;;5071160;28;19919;-54
2022/08/12 04:25:50;;;;;;;;;;;22.10;55.20;;;;;;5070751;28;19934;-57
2022/08/12 04:28:23;;;;;;;;;;;22.10;54.60;;;;;;5070609;28;19978;-56
2022/08/12 04:30:48;;;;;;;;;;;22.10;54.70;;;;;;5070867;28;19908;-57
2022/08/12 04:33:14;;;;;;;;;;;22.00;55.50;;;;;;5066874;28;19947;-56
2022/08/12 04:35:40;;;;;;;;;;;22.00;55.50;;;;;;5051220;28;19944;-57
2022/08/12 04:38:06;;;;;;;;;;;22.00;55.70;;;;;;5051028;28;19971;-56
2022/08/12 04:40:32;;;;;;;;;;;22.00;56.20;;;;;;5065563;28;19908;-56
2022/08/12 04:42:59;;;;;;;;;;;22.00;55.90;;;;;;5070300;28;19908;-56
2022/08/12 04:45:25;;;;;;;;;;;22.00;56.40;;;;;;5070078;28;19913;-56
2022/08/12 04:47:50;;;;;;;;;;;21.90;56.30;;;;;;5070023;28;19916;-54
2022/08/12 04:50:17;;;;;;;;;;;21.80;55.70;;;;;;5062637;28;19956;-56
2022/08/12 04:52:43;;;;;;;;;;;21.90;56.10;;;;;;5050713;28;20465;-57
2022/08/12 04:55:09;;;;;;;;;;;21.80;57.10;;;;;;5069686;28;19999;-57
2022/08/12 04:57:35;;;;;;;;;;;21.80;56.70;;;;;;5070132;28;20003;-56
2022/08/12 05:00:00;;;;;;;;;;;21.80;55.90;;;;;;5069871;28;20282;-57
2022/08/12 05:02:26;;;;;;;;;;;21.80;56.30;;;;;;5072458;28;20461;-56
2022/08/12 05:04:55;;;;;;;;;;;21.80;55.80;;;;;;5073424;28;19912;-57
2022/08/12 05:07:21;;;;;;;;;;;21.80;55.90;;;;;;5073516;28;20403;-57
2022/08/12 05:09:47;;;;;;;;;;;21.80;55.50;;;;;;5074011;28;19909;-56
2022/08/12 05:12:12;;;;;;;;;;;21.80;55.90;;;;;;5073968;28;19912;-56
2022/08/12 05:14:38;;;;;;;;;;;21.90;55.90;;;;;;5074000;28;20277;-56
2022/08/12 05:17:04;;;;;;;;;;;21.90;55.40;;;;;;5073237;28;19913;-56
2022/08/12 05:19:29;;;;;;;;;;;21.90;55.60;;;;;;5072738;28;19935;-56
2022/08/12 05:21:55;;;;;;;;;;;22.00;55.90;;;;;;5066847;28;19963;-56
2022/08/12 05:24:21;;;;;;;;;;;22.00;55.30;;;;;;5054469;28;20254;-57
2022/08/12 05:26:46;;;;;;;;;;;22.00;55.30;;;;;;5054098;28;19910;-57
2022/08/12 05:29:15;;;;;;;;;;;22.10;55.40;;;;;;5057288;28;19909;-57
2022/08/12 05:31:42;;;;;;;;;;;22.10;55.70;;;;;;5073568;28;19912;-57
2022/08/12 05:34:07;;;;;;;;;;;22.10;55.80;;;;;;5073057;28;19924;-56
2022/08/12 05:36:33;;;;;;;;;;;22.10;55.50;;;;;;5073606;28;19912;-56
2022/08/12 05:38:59;;;;;;;;;;;22.20;56.60;;;;;;5073133;28;19923;-56
2022/08/12 05:41:27;;;;;;;;;;;22.20;56.80;;;;;;5072902;28;19939;-57
2022/08/12 05:43:56;;;;;;;;;;;22.20;56.40;;;;;;5058363;28;19909;-57
2022/08/12 05:46:23;;;;;;;;;;;22.20;57.00;;;;;;5053882;28;19915;-57
2022/08/12 05:48:50;;;;;;;;;;;22.10;56.80;;;;;;5054404;28;19909;-57
2022/08/12 05:51:15;;;;;;;;;;;22.10;56.80;;;;;;5058094;28;19913;-57
2022/08/12 05:53:41;;;;;;;;;;;22.20;57.20;;;;;;5061566;28;19990;-56
2022/08/12 05:56:18;;;;;;;;;;;22.20;57.00;;;;;;5073469;28;20391;-56
2022/08/12 05:58:44;;;;;;;;;;;22.20;57.00;;;;;;5072833;28;19935;-57
2022/08/12 06:01:09;;;;;;;;;;;22.20;56.80;;;;;;5057056;28;19919;-57
2022/08/12 06:03:35;;;;;;;;;;;22.30;56.60;;;;;;5066289;28;19916;-55
2022/08/12 06:06:00;;;;;;;;;;;22.30;56.70;;;;;;5053385;28;20435;-54
2022/08/12 06:08:26;;;;;;;;;;;22.40;56.60;;;;;;5053479;28;19916;-55
2022/08/12 06:10:51;;;;;;;;;;;22.40;56.80;;;;;;5053467;28;20418;-57
2022/08/12 06:13:17;;;;;;;;;;;22.50;57.00;;;;;;5066894;28;19916;-56
2022/08/12 06:15:43;;;;;;;;;;;22.50;56.80;;;;;;5072184;28;19908;-56
2022/08/12 06:18:09;;;;;;;;;;;22.60;56.60;;;;;;5058795;28;19944;-57
2022/08/12 06:20:35;;;;;;;;;;;22.60;56.90;;;;;;5072639;28;19930;-56
2022/08/12 06:23:01;;;;;;;;;;;22.70;56.50;;;;;;5066058;28;20351;-58
2022/08/12 06:25:27;;;;;;;;;;;22.70;56.70;;;;;;5072478;28;19909;-56
2022/08/12 06:27:54;;;;;;;;;;;22.70;56.30;;;;;;5072268;28;19908;-57
2022/08/12 06:30:20;;;;;;;;;;;22.80;56.10;;;;;;5071396;28;19920;-55
2022/08/12 06:32:49;;;;;;;;;;;22.90;55.70;;;;;;5059640;28;19917;-56
2022/08/12 06:35:18;;;;;;;;;;;22.90;55.40;;;;;;5052802;28;19917;-59
2022/08/12 06:37:46;;;;;;;;;;;23.00;55.00;;;;;;5055630;28;20288;-58
2022/08/12 06:40:12;;;;;;;;;;;23.00;55.10;;;;;;5053450;28;19943;-58
2022/08/12 06:42:47;;;;;;;;;;;23.10;55.00;;;;;;5060476;28;20011;-57
2022/08/12 06:45:13;;;;;;;;;;;23.20;54.60;;;;;;5058832;28;20361;-58
2022/08/12 06:47:40;;;;;;;;;;;23.20;54.40;;;;;;5064845;28;19920;-59
2022/08/12 06:50:05;;;;;;;;;;;23.30;54.30;;;;;;5068942;28;20426;-59
2022/08/12 06:52:31;;;;;;;;;;;23.30;53.90;;;;;;5065288;28;19917;-58
2022/08/12 06:54:59;;;;;;;;;;;23.40;54.10;;;;;;5054870;28;19913;-59
2022/08/12 06:57:26;;;;;;;;;;;23.50;53.60;;;;;;5052695;28;19916;-59
2022/08/12 06:59:52;;;;;;;;;;;23.50;53.50;;;;;;5057321;28;19908;-58
2022/08/12 07:02:19;;;;;;;;;;;23.60;52.50;;;;;;5050867;28;19967;-59
2022/08/12 07:04:46;;;;;;;;;;;23.70;52.60;;;;;;5060804;28;19985;-59
2022/08/12 07:07:11;;;;;;;;;;;23.70;51.90;;;;;;5055641;28;20365;-59
2022/08/12 07:09:38;;;;;;;;;;;23.80;51.90;;;;;;5059392;28;20015;-58
2022/08/12 07:12:04;;;;;;;;;;;23.80;51.30;;;;;;5056526;28;19984;-59
2022/08/12 07:14:29;;;;;;;;;;;23.80;51.90;;;;;;5059548;28;20035;-58
2022/08/12 07:17:00;;;;;;;;;;;23.90;51.80;;;;;;5057067;28;19908;-58
2022/08/12 07:19:26;;;;;;;;;;;23.90;51.40;;;;;;5057979;28;20373;-60
2022/08/12 07:21:52;;;;;;;;;;;23.90;51.50;;;;;;5057393;28;19923;-59
2022/08/12 07:24:17;;;;;;;;;;;24.00;51.50;;;;;;5058461;28;19916;-56
2022/08/12 07:26:43;;;;;;;;;;;24.00;51.40;;;;;;5056197;28;20404;-59
2022/08/12 07:29:09;;;;;;;;;;;24.00;51.20;;;;;;5060359;28;19915;-59
2022/08/12 07:31:36;;;;;;;;;;;24.10;51.40;;;;;;5054578;28;19971;-58
2022/08/12 07:34:02;;;;;;;;;;;24.10;50.80;;;;;;5059645;28;20679;-59
2022/08/12 07:36:27;;;;;;;;;;;24.10;51.10;;;;;;5055201;28;19967;-59
2022/08/12 07:38:53;;;;;;;;;;;24.20;50.60;;;;;;5059367;28;19952;-59
2022/08/12 07:41:24;;;;;;;;;;;24.20;50.60;;;;;;5058281;28;19917;-58
2022/08/12 07:43:49;;;;;;;;;;;24.30;50.90;;;;;;5062981;28;19920;-59
2022/08/12 07:46:16;;;;;;;;;;;24.30;50.90;;;;;;5059233;28;19916;-59
2022/08/12 07:48:47;;;;;;;;;;;24.30;50.70;;;;;;5065156;28;19917;-61
2022/08/12 07:51:13;;;;;;;;;;;24.40;50.30;;;;;;5062721;28;19912;-60
2022/08/12 07:53:39;;;;;;;;;;;24.50;50.40;;;;;;5056275;28;19920;-60
2022/08/12 07:56:05;;;;;;;;;;;24.50;50.20;;;;;;5060642;28;20382;-60
2022/08/12 07:58:31;;;;;;;;;;;24.60;50.30;;;;;;5058534;28;19913;-59
2022/08/12 08:01:00;;;;;;;;;;;24.60;50.30;;;;;;5061604;28;20292;-59
2022/08/12 08:03:26;;;;;;;;;;;24.60;50.20;;;;;;5055558;28;19920;-60
2022/08/12 08:05:52;;;;;;;;;;;24.70;50.50;;;;;;5059688;28;20007;-60
2022/08/12 08:08:19;;;;;;;;;;;24.70;50.50;;;;;;5055411;28;20007;-60
2022/08/12 08:10:45;;;;;;;;;;;24.70;50.80;;;;;;5059368;28;19928;-58
2022/08/12 08:13:11;;;;;;;;;;;24.80;50.90;;;;;;5056653;28;19916;-60
2022/08/12 08:15:38;;;;;;;;;;;24.80;50.60;;;;;;5059530;28;19923;-58
2022/08/12 08:18:05;;;;;;;;;;;24.80;51.00;;;;;;5060255;28;19924;-57
2022/08/12 08:20:32;;;;;;;;;;;24.80;51.60;;;;;;5056670;28;19924;-58
2022/08/12 08:22:59;;;;;;;;;;;24.70;51.10;;;;;;5058849;28;19913;-58
2022/08/12 08:25:31;;;;;;;;;;;24.70;51.70;;;;;;5056652;28;20062;-59
2022/08/12 08:28:01;;;;;;;;;;;24.70;51.10;;;;;;5057310;28;19917;-59
2022/08/12 08:30:28;;;;;;;;;;;24.70;51.50;;;;;;5060935;28;19913;-56
2022/08/12 08:32:53;;;;;;;;;;;24.70;51.00;;;;;;5063332;28;19920;-57
2022/08/12 08:35:21;;;;;;;;;;;24.70;51.60;;;;;;5060395;28;19936;-58
2022/08/12 08:37:47;;;;;;;;;;;24.70;51.40;;;;;;5062706;28;20002;-58
2022/08/12 08:42:57;;;;;;;;;;;24.80;51.50;;;;;;5070153;28;19935;-57
2022/08/12 08:45:22;;;;;;;;;;;24.80;51.50;;;;;;5067670;28;20523;-57
2022/08/12 08:47:48;;;;;;;;;;;24.80;51.20;;;;;;5069432;28;19920;-57
2022/08/12 08:50:14;;;;;;;;;;;24.80;51.30;;;;;;5067545;28;20065;-57
2022/08/12 08:52:41;;;;;;;;;;;24.80;51.00;;;;;;5070090;28;19960;-57
2022/08/12 08:55:09;;;;;;;;;;;24.90;51.40;;;;;;5070602;28;20400;-58
2022/08/12 08:57:35;;;;;;;;;;;24.90;51.20;;;;;;5065485;28;20361;-58
2022/08/12 09:00:02;;;;;;;;;;;24.90;51.40;;;;;;5062296;28;19970;-57
2022/08/12 09:02:27;;;;;;;;;;;24.90;51.30;;;;;;5062654;28;19960;-56
2022/08/12 09:04:53;;;;;;;;;;;25.00;51.20;;;;;;5067633;28;20314;-57
2022/08/12 09:07:19;;;;;;;;;;;25.00;50.90;;;;;;5063106;28;20680;-58
2022/08/12 09:09:45;;;;;;;;;;;25.10;50.90;;;;;;5065498;28;19916;-58
2022/08/12 09:14:55;;;;;;;;;;;25.30;50.90;;;;;;5062504;28;19970;-59
2022/08/12 09:17:21;;;;;;;;;;;25.40;50.70;;;;;;5059321;28;20442;-59
2022/08/12 09:19:47;;;;;;;;;;;25.50;50.60;;;;;;5062710;28;19913;-59
2022/08/12 09:22:12;;;;;;;;;;;25.60;50.10;;;;;;5058647;28;20324;-59
2022/08/12 09:24:38;;;;;;;;;;;25.60;50.40;;;;;;5061150;28;19917;-58
2022/08/12 09:27:05;;;;;;;;;;;25.80;50.70;;;;;;5060914;28;19913;-59
2022/08/12 09:29:32;;;;;;;;;;;25.80;50.30;;;;;;5060155;28;19943;-59
2022/08/12 09:31:58;;;;;;;;;;;25.90;50.30;;;;;;5061348;28;19917;-62
2022/08/12 09:34:30;;;;;;;;;;;26.00;50.20;;;;;;5059339;28;20049;-63
2022/08/12 09:36:55;;;;;;;;;;;26.10;49.70;;;;;;5059833;28;19919;-63
2022/08/12 09:39:21;;;;;;;;;;;26.30;49.50;;;;;;5057870;28;19921;-62
2022/08/12 09:45:19;;;;;;;;;;;26.30;49.20;;;;;;5061593;28;19991;-60
2022/08/12 09:47:21;;;;;;;;;;;26.40;49.50;;;;;;5060446;28;20439;-63
2022/08/12 09:49:48;;;;;;;;;;;26.50;48.80;;;;;;5063539;28;20102;-61
2022/08/12 09:52:14;;;;;;;;;;;26.50;49.30;;;;;;5058589;28;19958;-62
2022/08/12 09:54:40;;;;;;;;;;;26.60;49.00;;;;;;5060113;28;19975;-61
2022/08/12 09:57:09;;;;;;;;;;;26.70;48.30;;;;;;5061143;28;19956;-62
2022/08/12 09:59:35;;;;;;;;;;;26.80;48.10;;;;;;5059545;28;20356;-60
2022/08/12 10:02:00;;;;;;;;;;;26.90;48.50;;;;;;5058033;28;19946;-62
2022/08/12 10:04:25;;;;;;;;;;;27.00;48.30;;;;;;5059499;28;19917;-61
2022/08/12 10:06:51;;;;;;;;;;;27.00;47.70;;;;;;5059744;28;19917;-62
2022/08/12 10:09:17;;;;;;;;;;;27.00;47.10;;;;;;5061351;28;19956;-57
2022/08/12 10:14:26;;;;;;;;;;;27.00;47.60;;;;;;5057857;28;20445;-60
2022/08/12 10:16:53;;;;;;;;;;;27.10;47.30;;;;;;5058769;28;20007;-59
2022/08/12 10:19:20;;;;;;;;;;;27.20;47.30;;;;;;5061146;28;20008;-60
2022/08/12 10:21:46;;;;;;;;;;;27.30;46.80;;;;;;5056259;28;19916;-60
2022/08/12 10:24:17;;;;;;;;;;;27.40;47.20;;;;;;5060058;28;20351;-60
2022/08/12 10:29:41;;;;;;;;;;;27.50;46.40;;;;;;5059655;28;20273;-59
2022/08/12 10:32:15;;;;;;;;;;;27.50;46.70;;;;;;5059694;28;19917;-59
2022/08/12 10:34:41;;;;;;;;;;;27.60;45.80;;;;;;5060811;28;19956;-60
2022/08/12 10:37:06;;;;;;;;;;;27.70;46.10;;;;;;5056806;28;20405;-60
2022/08/12 10:39:35;;;;;;;;;;;27.80;45.60;;;;;;5057123;28;19959;-61
2022/08/12 10:44:46;;;;;;;;;;;27.90;45.40;;;;;;5057153;28;20400;-60
2022/08/12 10:47:15;;;;;;;;;;;27.90;45.10;;;;;;5060166;28;19909;-60
2022/08/12 10:49:41;;;;;;;;;;;28.00;45.40;;;;;;5057183;28;20479;-61
2022/08/12 10:52:07;;;;;;;;;;;28.00;45.00;;;;;;5056721;28;19916;-60
2022/08/12 10:54:32;;;;;;;;;;;28.10;44.20;;;;;;5061372;28;19920;-60
2022/08/12 10:56:59;;;;;;;;;;;28.10;44.00;;;;;;5060703;28;19913;-61
2022/08/12 10:59:28;;;;;;;;;;;28.00;44.40;;;;;;5056203;28;20011;-62
2022/08/12 11:01:55;;;;;;;;;;;28.10;44.50;;;;;;5058083;28;19924;-58
2022/08/12 11:04:21;;;;;;;;;;;28.20;44.10;;;;;;5060312;28;19943;-58
2022/08/12 11:06:47;;;;;;;;;;;28.30;44.50;;;;;;5057350;28;20424;-59
2022/08/12 11:09:17;;;;;;;;;;;28.40;44.30;;;;;;5058433;28;19913;-58
2022/08/12 11:11:43;;;;;;;;;;;28.50;44.20;;;;;;5058058;28;19917;-59
2022/08/12 11:14:09;;;;;;;;;;;28.60;44.40;;;;;;5057491;28;19928;-56
2022/08/12 11:16:34;;;;;;;;;;;28.60;44.10;;;;;;5057035;28;20328;-58
2022/08/12 11:19:00;;;;;;;;;;;28.70;44.00;;;;;;5060315;28;19916;-58
2022/08/12 11:21:25;;;;;;;;;;;28.80;43.70;;;;;;5056474;28;19964;-58
2022/08/12 11:23:51;;;;;;;;;;;28.90;44.10;;;;;;5062579;28;20004;-59
2022/08/12 11:26:16;;;;;;;;;;;28.90;43.80;;;;;;5058102;28;19921;-58
2022/08/12 11:28:42;;;;;;;;;;;29.00;43.80;;;;;;5062771;28;19982;-60
2022/08/12 11:31:08;;;;;;;;;;;28.90;43.10;;;;;;5060093;28;20331;-57
2022/08/12 11:33:33;;;;;;;;;;;28.90;42.70;;;;;;5062915;28;20296;-58
2022/08/12 11:36:06;;;;;;;;;;;28.90;42.60;;;;;;5056813;28;19916;-59
2022/08/12 11:38:32;;;;;;;;;;;28.90;41.60;;;;;;5057308;28;19917;-59
2022/08/12 11:40:57;;;;;;;;;;;28.90;42.10;;;;;;5062883;28;19919;-59
2022/08/12 11:43:23;;;;;;;;;;;29.00;42.10;;;;;;5057397;28;19959;-59
2022/08/12 11:45:48;;;;;;;;;;;29.00;41.60;;;;;;5059002;28;19920;-59
2022/08/12 11:48:15;;;;;;;;;;;29.00;41.90;;;;;;5055430;28;19921;-60
2022/08/12 11:50:46;;;;;;;;;;;29.10;42.40;;;;;;5061161;28;19913;-59
2022/08/12 11:53:11;;;;;;;;;;;29.30;42.10;;;;;;5057796;28;19921;-59
2022/08/12 11:55:37;;;;;;;;;;;29.30;41.70;;;;;;5059272;28;19916;-60
2022/08/12 11:58:02;;;;;;;;;;;29.40;41.10;;;;;;5060423;28;19998;-60
2022/08/12 12:00:28;;;;;;;;;;;29.40;41.20;;;;;;5057491;28;19917;-58
2022/08/12 12:02:53;;;;;;;;;;;29.50;40.50;;;;;;5054984;28;20313;-59
2022/08/12 12:05:19;;;;;;;;;;;29.50;41.50;;;;;;5059676;28;20369;-59
2022/08/12 12:07:45;;;;;;;;;;;29.50;40.60;;;;;;5055453;28;19916;-59
2022/08/12 12:10:12;;;;;;;;;;;29.50;41.30;;;;;;5055399;28;19913;-59
2022/08/12 12:12:38;;;;;;;;;;;29.40;40.10;;;;;;5056198;28;20000;-58
2022/08/12 12:15:05;;;;;;;;;;;29.40;40.80;;;;;;5058576;28;19944;-59
2022/08/12 12:17:33;;;;;;;;;;;29.40;40.60;;;;;;5057803;28;19920;-58
2022/08/12 12:19:59;;;;;;;;;;;29.40;40.70;;;;;;5055624;28;19916;-59
2022/08/12 12:22:24;;;;;;;;;;;29.40;40.60;;;;;;5054032;28;20204;-58
2022/08/12 12:24:50;;;;;;;;;;;29.50;40.40;;;;;;5057265;28;19917;-59
2022/08/12 12:27:19;;;;;;;;;;;29.50;40.40;;;;;;5057158;28;19913;-59
2022/08/12 12:29:44;;;;;;;;;;;29.50;40.70;;;;;;5060623;28;19959;-59
2022/08/12 12:32:10;;;;;;;;;;;29.60;40.40;;;;;;5055245;28;19913;-58
2022/08/12 12:34:35;;;;;;;;;;;29.60;41.30;;;;;;5056014;28;19925;-60
2022/08/12 12:37:01;;;;;;;;;;;29.60;40.60;;;;;;5057202;28;19913;-59
2022/08/12 12:39:27;;;;;;;;;;;29.60;40.70;;;;;;5058335;28;19912;-59
2022/08/12 12:41:52;;;;;;;;;;;29.60;40.20;;;;;;5056611;28;19979;-61
2022/08/12 12:44:18;;;;;;;;;;;29.70;40.40;;;;;;5054674;28;19924;-57
2022/08/12 12:46:43;;;;;;;;;;;29.70;40.60;;;;;;5057411;28;19912;-55
2022/08/12 12:49:09;;;;;;;;;;;29.80;39.80;;;;;;5052896;28;19908;-56
2022/08/12 12:51:34;;;;;;;;;;;29.80;40.10;;;;;;5059080;28;19917;-57
2022/08/12 12:54:00;;;;;;;;;;;29.80;39.90;;;;;;5055274;28;20003;-57
2022/08/12 12:56:25;;;;;;;;;;;29.90;40.10;;;;;;5055529;28;19916;-54
2022/08/12 12:58:52;;;;;;;;;;;29.90;40.30;;;;;;5057577;28;19958;-56
2022/08/12 13:01:20;;;;;;;;;;;30.00;40.10;;;;;;5056259;28;19921;-56
2022/08/12 13:03:47;;;;;;;;;;;30.00;40.20;;;;;;5054860;28;20035;-55
2022/08/12 13:06:13;;;;;;;;;;;30.00;39.90;;;;;;5054539;28;20361;-57
2022/08/12 13:08:38;;;;;;;;;;;30.00;40.00;;;;;;5058267;28;19924;-56
2022/08/12 13:11:05;;;;;;;;;;;30.00;40.10;;;;;;5055657;28;19909;-55
2022/08/12 13:13:31;;;;;;;;;;;30.10;40.30;;;;;;5057319;28;19920;-54
2022/08/12 13:15:59;;;;;;;;;;;30.10;40.10;;;;;;5056403;28;19991;-57
2022/08/12 13:18:27;;;;;;;;;;;30.20;40.20;;;;;;5056554;28;19908;-57
2022/08/12 13:20:52;;;;;;;;;;;30.20;39.20;;;;;;5054724;28;19966;-56
2022/08/12 13:23:18;;;;;;;;;;;30.20;39.80;;;;;;5061739;28;19909;-56
2022/08/12 13:25:45;;;;;;;;;;;30.20;39.00;;;;;;5062821;28;19912;-57
2022/08/12 13:28:23;;;;;;;;;;;30.10;39.60;;;;;;5062330;28;19913;-57
2022/08/12 13:30:51;;;;;;;;;;;30.10;39.90;;;;;;5058711;28;20014;-58
2022/08/12 13:33:21;;;;;;;;;;;30.20;40.30;;;;;;5065946;28;19929;-57
2022/08/12 13:35:49;;;;;;;;;;;30.20;39.50;;;;;;5060407;28;19917;-57
2022/08/12 13:38:14;;;;;;;;;;;30.20;40.00;;;;;;5058020;28;19956;-57
2022/08/12 13:40:40;;;;;;;;;;;30.30;39.60;;;;;;5061439;28;20353;-57
2022/08/12 13:43:05;;;;;;;;;;;30.30;39.70;;;;;;5058670;28;19921;-56
2022/08/12 13:45:32;;;;;;;;;;;30.40;39.80;;;;;;5062447;28;21532;-57
2022/08/12 13:48:01;;;;;;;;;;;30.40;39.80;;;;;;5059157;28;19913;-57
2022/08/12 13:50:34;;;;;;;;;;;30.40;39.60;;;;;;5060661;28;19913;-57
2022/08/12 13:53:20;;;;;;;;;;;30.50;39.60;;;;;;5059081;28;19993;-57
2022/08/12 13:55:47;;;;;;;;;;;30.50;39.60;;;;;;5064177;28;19924;-56
2022/08/12 13:58:16;;;;;;;;;;;30.50;39.00;;;;;;5062454;28;19952;-57
2022/08/12 14:00:49;;;;;;;;;;;30.50;39.80;;;;;;5062342;28;20284;-57
2022/08/12 14:03:16;;;;;;;;;;;30.50;39.50;;;;;;5057632;28;19921;-58
2022/08/12 14:05:42;;;;;;;;;;;30.60;39.50;;;;;;5059258;28;19916;-57
2022/08/12 14:08:09;;;;;;;;;;;30.50;39.10;;;;;;5056692;28;19917;-56
2022/08/12 14:10:39;;;;;;;;;;;30.50;38.90;;;;;;5063046;28;19921;-56
2022/08/12 14:13:06;;;;;;;;;;;30.60;38.80;;;;;;5059799;28;19921;-56
2022/08/12 14:15:33;;;;;;;;;;;30.60;38.50;;;;;;5057637;28;20043;-57
2022/08/12 14:18:09;;;;;;;;;;;30.50;39.10;;;;;;5059808;28;19920;-58
2022/08/12 14:20:35;;;;;;;;;;;30.60;38.90;;;;;;5059244;28;19913;-57
2022/08/12 14:23:00;;;;;;;;;;;30.50;38.40;;;;;;5058571;28;19916;-58
2022/08/12 14:25:29;;;;;;;;;;;30.60;38.40;;;;;;5058178;28;20034;-57
2022/08/12 14:28:02;;;;;;;;;;;30.70;38.80;;;;;;5060835;28;19947;-55
2022/08/12 14:30:28;;;;;;;;;;;30.70;38.30;;;;;;5057644;28;19967;-58
2022/08/12 14:32:53;;;;;;;;;;;30.80;38.40;;;;;;5065981;28;20650;-54
2022/08/12 14:35:19;;;;;;;;;;;30.80;38.40;;;;;;5062217;28;19942;-58
2022/08/12 14:37:44;;;;;;;;;;;30.80;38.50;;;;;;5063980;28;20428;-58
2022/08/12 14:40:10;;;;;;;;;;;30.80;38.80;;;;;;5057004;28;20452;-58
2022/08/12 14:42:37;;;;;;;;;;;30.80;38.70;;;;;;5064137;28;19921;-58
2022/08/12 14:45:02;;;;;;;;;;;30.80;38.50;;;;;;5058076;28;19982;-58
2022/08/12 14:47:28;;;;;;;;;;;30.80;38.80;;;;;;5064386;28;20342;-57
2022/08/12 14:49:54;;;;;;;;;;;30.80;38.50;;;;;;5064229;28;19913;-58
2022/08/12 14:52:19;;;;;;;;;;;30.80;37.60;;;;;;5061734;28;19928;-56
2022/08/12 14:54:45;;;;;;;;;;;30.70;38.20;;;;;;5064431;28;19925;-56
2022/08/12 14:57:10;;;;;;;;;;;30.80;38.60;;;;;;5062905;28;19916;-58
2022/08/12 15:02:20;;;;;;;;;;;30.80;38.10;;;;;;5066973;28;20350;-57
2022/08/12 15:04:57;;;;;;;;;;;30.90;38.10;;;;;;5059190;28;19913;-56
2022/08/12 15:07:25;;;;;;;;;;;31.00;38.20;;;;;;5059547;28;19922;-57
2022/08/12 15:09:50;;;;;;;;;;;31.00;38.50;;;;;;5064367;28;19912;-57
2022/08/12 15:12:16;;;;;;;;;;;31.00;38.40;;;;;;5056158;28;19924;-58
2022/08/12 15:14:41;;;;;;;;;;;31.00;38.40;;;;;;5057486;28;19921;-56
2022/08/12 15:17:08;;;;;;;;;;;31.10;38.40;;;;;;5056960;28;20403;-53
2022/08/12 15:19:33;;;;;;;;;;;31.10;38.20;;;;;;5057938;28;19917;-62
2022/08/12 15:21:59;;;;;;;;;;;31.10;37.90;;;;;;5058901;28;19912;-57
2022/08/12 15:24:24;;;;;;;;;;;31.10;37.90;;;;;;5056301;28;19917;-57
2022/08/12 15:26:50;;;;;;;;;;;31.10;38.20;;;;;;5058811;28;19913;-56
2022/08/12 15:29:15;;;;;;;;;;;31.10;38.10;;;;;;5055585;28;19913;-55
2022/08/12 15:31:41;;;;;;;;;;;31.10;38.30;;;;;;5059040;28;19916;-57
2022/08/12 15:34:06;;;;;;;;;;;31.20;37.80;;;;;;5058279;28;19944;-58
2022/08/12 15:36:33;;;;;;;;;;;31.20;38.30;;;;;;5059560;28;20007;-58
2022/08/12 15:38:59;;;;;;;;;;;31.20;38.20;;;;;;5056875;28;19912;-56
2022/08/12 15:41:25;;;;;;;;;;;31.10;38.30;;;;;;5059701;28;20381;-58
2022/08/12 15:43:52;;;;;;;;;;;31.20;38.20;;;;;;5033186;28;20004;-58
2022/08/12 15:46:17;;;;;;;;;;;31.20;38.00;;;;;;5055426;28;20304;-58
2022/08/12 15:48:43;;;;;;;;;;;31.20;37.90;;;;;;5057387;28;19923;-57
2022/08/12 15:51:09;;;;;;;;;;;31.20;37.60;;;;;;5056801;28;19916;-59
2022/08/12 15:56:22;;;;;;;;;;;31.10;38.10;;;;;;5065910;28;20330;-56
2022/08/12 15:58:48;;;;;;;;;;;31.20;37.90;;;;;;5061296;28;19992;-56
2022/08/12 16:01:14;;;;;;;;;;;31.20;37.70;;;;;;5056434;28;20010;-58